Terminal Aerodrome Forecast
Issued by NWS Sterling, VA

Home | Current Version | Previous Version | Text Only | Print | Product List | Glossary On
Versions: 1 2 3 4 5 6 7 8 9 10 11 12 13 14
332
FTUS41 KLWX 041120
TAFMRB
TAF
KMRB 041120Z 0412/0512 VRB03KT P6SM BKN150
     FM050100 13004KT 6SM -RAPL BR OVC050
     FM050300 15004KT 5SM -RAPL BR OVC025
     FM050600 16006KT 3SM -RA BR OVC008
     FM050900 18007KT P6SM OVC006=

USA.gov is the U.S. government's official web portal to all federal, state and local government web resources and services.